sensor_id;sensor_type;location;lat;lon;timestamp;P1;durP1;ratioP1;P2;durP2;ratioP2
21330;SDS011;10824;51.632;4.950;2023-03-13T00:01:13;6.93;;;2.30;;
21330;SDS011;10824;51.632;4.950;2023-03-13T00:03:45;13.02;;;3.88;;
21330;SDS011;10824;51.632;4.950;2023-03-13T00:06:12;11.00;;;2.40;;
21330;SDS011;10824;51.632;4.950;2023-03-13T00:08:40;6.18;;;1.67;;
21330;SDS011;10824;51.632;4.950;2023-03-13T00:11:09;9.90;;;2.55;;
21330;SDS011;10824;51.632;4.950;2023-03-13T00:13:37;15.82;;;2.80;;
21330;SDS011;10824;51.632;4.950;2023-03-13T00:16:05;4.57;;;2.55;;
21330;SDS011;10824;51.632;4.950;2023-03-13T00:18:37;7.75;;;2.10;;
21330;SDS011;10824;51.632;4.950;2023-03-13T00:21:06;9.65;;;3.97;;
21330;SDS011;10824;51.632;4.950;2023-03-13T00:23:35;11.52;;;2.92;;
21330;SDS011;10824;51.632;4.950;2023-03-13T00:26:10;7.68;;;2.25;;
21330;SDS011;10824;51.632;4.950;2023-03-13T00:28:39;6.70;;;3.42;;
21330;SDS011;10824;51.632;4.950;2023-03-13T00:31:11;7.68;;;3.08;;
21330;SDS011;10824;51.632;4.950;2023-03-13T00:33:58;7.45;;;2.38;;
21330;SDS011;10824;51.632;4.950;2023-03-13T00:36:28;9.40;;;3.03;;
21330;SDS011;10824;51.632;4.950;2023-03-13T00:39:00;6.55;;;1.88;;
21330;SDS011;10824;51.632;4.950;2023-03-13T00:41:30;12.10;;;2.22;;
21330;SDS011;10824;51.632;4.950;2023-03-13T00:43:58;7.57;;;1.80;;
21330;SDS011;10824;51.632;4.950;2023-03-13T00:46:26;10.60;;;2.25;;
21330;SDS011;10824;51.632;4.950;2023-03-13T00:48:55;4.60;;;2.00;;
21330;SDS011;10824;51.632;4.950;2023-03-13T00:51:23;10.77;;;2.30;;
21330;SDS011;10824;51.632;4.950;2023-03-13T00:53:53;7.40;;;2.47;;
21330;SDS011;10824;51.632;4.950;2023-03-13T00:56:22;5.45;;;2.47;;
21330;SDS011;10824;51.632;4.950;2023-03-13T00:58:49;4.15;;;2.20;;
21330;SDS011;10824;51.632;4.950;2023-03-13T01:01:18;8.25;;;2.20;;
21330;SDS011;10824;51.632;4.950;2023-03-13T01:03:51;13.77;;;2.95;;
21330;SDS011;10824;51.632;4.950;2023-03-13T01:06:21;3.85;;;1.75;;
21330;SDS011;10824;51.632;4.950;2023-03-13T01:08:51;2.45;;;1.50;;
21330;SDS011;10824;51.632;4.950;2023-03-13T01:11:20;4.05;;;2.63;;
21330;SDS011;10824;51.632;4.950;2023-03-13T01:13:52;10.63;;;3.08;;
21330;SDS011;10824;51.632;4.950;2023-03-13T01:16:27;3.92;;;1.73;;
21330;SDS011;10824;51.632;4.950;2023-03-13T01:18:58;4.63;;;1.23;;
21330;SDS011;10824;51.632;4.950;2023-03-13T01:21:27;7.97;;;1.55;;
21330;SDS011;10824;51.632;4.950;2023-03-13T01:23:55;3.97;;;1.90;;
21330;SDS011;10824;51.632;4.950;2023-03-13T01:26:23;3.22;;;1.67;;
21330;SDS011;10824;51.632;4.950;2023-03-13T01:28:52;9.65;;;1.65;;
21330;SDS011;10824;51.632;4.950;2023-03-13T01:31:21;5.22;;;1.58;;
21330;SDS011;10824;51.632;4.950;2023-03-13T01:33:49;5.95;;;1.50;;
21330;SDS011;10824;51.632;4.950;2023-03-13T01:36:19;3.85;;;1.52;;
21330;SDS011;10824;51.632;4.950;2023-03-13T01:38:48;3.10;;;1.95;;
21330;SDS011;10824;51.632;4.950;2023-03-13T01:41:16;6.18;;;1.90;;
21330;SDS011;10824;51.632;4.950;2023-03-13T01:43:45;5.25;;;1.85;;
21330;SDS011;10824;51.632;4.950;2023-03-13T01:46:20;5.38;;;1.65;;
21330;SDS011;10824;51.632;4.950;2023-03-13T01:49:17;5.78;;;2.22;;
21330;SDS011;10824;51.632;4.950;2023-03-13T01:51:56;3.65;;;2.15;;
21330;SDS011;10824;51.632;4.950;2023-03-13T01:54:28;4.90;;;1.60;;
21330;SDS011;10824;51.632;4.950;2023-03-13T01:57:04;2.72;;;1.70;;
21330;SDS011;10824;51.632;4.950;2023-03-13T02:02:38;3.50;;;1.90;;
21330;SDS011;10824;51.632;4.950;2023-03-13T02:05:08;4.18;;;1.38;;
21330;SDS011;10824;51.632;4.950;2023-03-13T02:07:37;4.60;;;1.65;;
21330;SDS011;10824;51.632;4.950;2023-03-13T02:10:08;3.25;;;1.67;;
21330;SDS011;10824;51.632;4.950;2023-03-13T02:12:37;3.65;;;1.90;;
21330;SDS011;10824;51.632;4.950;2023-03-13T02:15:16;3.70;;;1.80;;
21330;SDS011;10824;51.632;4.950;2023-03-13T02:17:46;4.28;;;1.70;;
21330;SDS011;10824;51.632;4.950;2023-03-13T02:20:15;4.07;;;2.03;;
21330;SDS011;10824;51.632;4.950;2023-03-13T02:25:37;4.82;;;1.50;;
21330;SDS011;10824;51.632;4.950;2023-03-13T02:28:31;4.65;;;1.80;;
21330;SDS011;10824;51.632;4.950;2023-03-13T02:31:04;2.63;;;1.30;;
21330;SDS011;10824;51.632;4.950;2023-03-13T02:33:34;7.78;;;1.65;;
21330;SDS011;10824;51.632;4.950;2023-03-13T02:36:05;4.45;;;1.77;;
21330;SDS011;10824;51.632;4.950;2023-03-13T02:38:37;3.13;;;1.65;;
21330;SDS011;10824;51.632;4.950;2023-03-13T02:41:18;5.03;;;1.92;;
21330;SDS011;10824;51.632;4.950;2023-03-13T02:43:47;4.68;;;2.35;;
21330;SDS011;10824;51.632;4.950;2023-03-13T02:46:16;4.45;;;1.80;;
21330;SDS011;10824;51.632;4.950;2023-03-13T02:48:49;6.72;;;2.22;;
21330;SDS011;10824;51.632;4.950;2023-03-13T02:51:32;2.40;;;1.55;;
21330;SDS011;10824;51.632;4.950;2023-03-13T02:54:09;2.72;;;1.67;;
21330;SDS011;10824;51.632;4.950;2023-03-13T02:56:41;4.47;;;2.05;;
21330;SDS011;10824;51.632;4.950;2023-03-13T02:59:10;3.53;;;1.48;;
21330;SDS011;10824;51.632;4.950;2023-03-13T03:01:41;6.10;;;2.17;;
21330;SDS011;10824;51.632;4.950;2023-03-13T03:04:08;3.67;;;2.10;;
21330;SDS011;10824;51.632;4.950;2023-03-13T03:06:35;5.72;;;1.98;;
21330;SDS011;10824;51.632;4.950;2023-03-13T03:09:03;3.75;;;2.17;;
21330;SDS011;10824;51.632;4.950;2023-03-13T03:11:33;4.70;;;1.88;;
21330;SDS011;10824;51.632;4.950;2023-03-13T03:14:05;5.82;;;2.60;;
21330;SDS011;10824;51.632;4.950;2023-03-13T03:19:04;2.97;;;2.20;;
21330;SDS011;10824;51.632;4.950;2023-03-13T03:21:32;5.65;;;2.03;;
21330;SDS011;10824;51.632;4.950;2023-03-13T03:23:59;6.90;;;2.67;;
21330;SDS011;10824;51.632;4.950;2023-03-13T03:26:27;4.22;;;2.20;;
21330;SDS011;10824;51.632;4.950;2023-03-13T03:28:54;7.60;;;2.75;;
21330;SDS011;10824;51.632;4.950;2023-03-13T03:31:21;7.03;;;2.63;;
21330;SDS011;10824;51.632;4.950;2023-03-13T03:33:49;6.70;;;3.35;;
21330;SDS011;10824;51.632;4.950;2023-03-13T03:36:18;5.35;;;2.15;;
21330;SDS011;10824;51.632;4.950;2023-03-13T03:38:47;4.32;;;2.63;;
21330;SDS011;10824;51.632;4.950;2023-03-13T03:41:17;4.88;;;2.35;;
21330;SDS011;10824;51.632;4.950;2023-03-13T03:43:45;3.53;;;2.10;;
21330;SDS011;10824;51.632;4.950;2023-03-13T03:46:16;3.00;;;2.00;;
21330;SDS011;10824;51.632;4.950;2023-03-13T03:48:43;5.30;;;2.78;;
21330;SDS011;10824;51.632;4.950;2023-03-13T03:51:11;5.10;;;2.72;;
21330;SDS011;10824;51.632;4.950;2023-03-13T03:53:41;5.90;;;2.47;;
21330;SDS011;10824;51.632;4.950;2023-03-13T03:56:08;6.80;;;2.13;;
21330;SDS011;10824;51.632;4.950;2023-03-13T03:58:40;4.18;;;2.70;;
21330;SDS011;10824;51.632;4.950;2023-03-13T04:01:16;3.08;;;2.60;;
21330;SDS011;10824;51.632;4.950;2023-03-13T04:03:43;5.82;;;2.38;;
21330;SDS011;10824;51.632;4.950;2023-03-13T04:06:11;2.70;;;2.17;;
21330;SDS011;10824;51.632;4.950;2023-03-13T04:08:38;5.07;;;2.10;;
21330;SDS011;10824;51.632;4.950;2023-03-13T04:11:06;4.35;;;2.15;;
21330;SDS011;10824;51.632;4.950;2023-03-13T04:13:37;4.25;;;2.28;;
21330;SDS011;10824;51.632;4.950;2023-03-13T04:16:07;4.65;;;1.83;;
21330;SDS011;10824;51.632;4.950;2023-03-13T04:21:03;5.43;;;2.20;;
21330;SDS011;10824;51.632;4.950;2023-03-13T04:23:40;4.80;;;1.50;;
21330;SDS011;10824;51.632;4.950;2023-03-13T04:26:07;5.10;;;1.67;;
21330;SDS011;10824;51.632;4.950;2023-03-13T04:28:35;4.18;;;1.40;;
21330;SDS011;10824;51.632;4.950;2023-03-13T04:31:04;2.67;;;1.83;;
21330;SDS011;10824;51.632;4.950;2023-03-13T04:33:52;3.58;;;2.28;;
21330;SDS011;10824;51.632;4.950;2023-03-13T04:36:30;4.00;;;2.67;;
21330;SDS011;10824;51.632;4.950;2023-03-13T04:38:57;2.95;;;1.35;;
21330;SDS011;10824;51.632;4.950;2023-03-13T04:41:52;2.83;;;1.10;;
21330;SDS011;10824;51.632;4.950;2023-03-13T04:44:43;3.05;;;1.35;;
21330;SDS011;10824;51.632;4.950;2023-03-13T04:47:17;1.25;;;1.10;;
21330;SDS011;10824;51.632;4.950;2023-03-13T04:50:03;3.13;;;1.55;;
21330;SDS011;10824;51.632;4.950;2023-03-13T04:52:44;2.28;;;1.30;;
21330;SDS011;10824;51.632;4.950;2023-03-13T04:55:39;3.97;;;1.40;;
21330;SDS011;10824;51.632;4.950;2023-03-13T04:58:27;2.38;;;1.45;;
21330;SDS011;10824;51.632;4.950;2023-03-13T05:01:16;7.20;;;1.10;;
21330;SDS011;10824;51.632;4.950;2023-03-13T05:04:07;2.13;;;1.30;;
21330;SDS011;10824;51.632;4.950;2023-03-13T05:06:41;9.05;;;1.55;;
21330;SDS011;10824;51.632;4.950;2023-03-13T05:09:43;4.07;;;1.45;;
21330;SDS011;10824;51.632;4.950;2023-03-13T05:12:49;4.88;;;1.42;;
21330;SDS011;10824;51.632;4.950;2023-03-13T05:15:27;2.47;;;1.27;;
21330;SDS011;10824;51.632;4.950;2023-03-13T05:18:10;5.13;;;2.75;;
21330;SDS011;10824;51.632;4.950;2023-03-13T05:20:43;1.85;;;1.15;;
21330;SDS011;10824;51.632;4.950;2023-03-13T05:23:31;1.52;;;0.93;;
21330;SDS011;10824;51.632;4.950;2023-03-13T05:26:24;1.45;;;1.13;;
21330;SDS011;10824;51.632;4.950;2023-03-13T05:29:08;1.67;;;1.10;;
21330;SDS011;10824;51.632;4.950;2023-03-13T05:31:55;5.28;;;1.08;;
21330;SDS011;10824;51.632;4.950;2023-03-13T05:34:43;4.43;;;1.40;;
21330;SDS011;10824;51.632;4.950;2023-03-13T05:37:37;3.38;;;1.83;;
21330;SDS011;10824;51.632;4.950;2023-03-13T05:43:15;3.40;;;1.55;;
21330;SDS011;10824;51.632;4.950;2023-03-13T05:46:02;2.38;;;1.48;;
21330;SDS011;10824;51.632;4.950;2023-03-13T05:48:47;3.65;;;1.30;;
21330;SDS011;10824;51.632;4.950;2023-03-13T05:51:35;1.88;;;1.15;;
21330;SDS011;10824;51.632;4.950;2023-03-13T05:54:20;2.35;;;1.25;;
21330;SDS011;10824;51.632;4.950;2023-03-13T05:57:06;4.88;;;1.13;;
21330;SDS011;10824;51.632;4.950;2023-03-13T05:59:53;3.97;;;1.50;;
21330;SDS011;10824;51.632;4.950;2023-03-13T06:02:38;3.25;;;2.40;;
21330;SDS011;10824;51.632;4.950;2023-03-13T06:05:09;4.07;;;1.25;;
21330;SDS011;10824;51.632;4.950;2023-03-13T06:07:37;5.25;;;1.50;;
21330;SDS011;10824;51.632;4.950;2023-03-13T06:10:04;4.90;;;1.20;;
21330;SDS011;10824;51.632;4.950;2023-03-13T06:12:32;4.15;;;1.08;;
21330;SDS011;10824;51.632;4.950;2023-03-13T06:14:59;2.67;;;1.52;;
21330;SDS011;10824;51.632;4.950;2023-03-13T06:17:49;2.05;;;1.10;;
21330;SDS011;10824;51.632;4.950;2023-03-13T06:20:17;4.93;;;1.50;;
21330;SDS011;10824;51.632;4.950;2023-03-13T06:22:44;5.97;;;2.53;;
21330;SDS011;10824;51.632;4.950;2023-03-13T06:25:11;3.90;;;1.42;;
21330;SDS011;10824;51.632;4.950;2023-03-13T06:27:39;7.20;;;1.65;;
21330;SDS011;10824;51.632;4.950;2023-03-13T06:30:08;5.00;;;2.10;;
21330;SDS011;10824;51.632;4.950;2023-03-13T06:32:36;5.28;;;3.35;;
21330;SDS011;10824;51.632;4.950;2023-03-13T06:35:04;5.00;;;1.85;;
21330;SDS011;10824;51.632;4.950;2023-03-13T06:37:32;2.47;;;1.33;;
21330;SDS011;10824;51.632;4.950;2023-03-13T06:39:59;6.53;;;2.90;;
21330;SDS011;10824;51.632;4.950;2023-03-13T06:42:26;7.60;;;1.30;;
21330;SDS011;10824;51.632;4.950;2023-03-13T06:44:54;3.88;;;1.40;;
21330;SDS011;10824;51.632;4.950;2023-03-13T06:47:21;8.35;;;1.17;;
21330;SDS011;10824;51.632;4.950;2023-03-13T06:49:48;4.30;;;1.13;;
21330;SDS011;10824;51.632;4.950;2023-03-13T06:52:15;2.45;;;1.20;;
21330;SDS011;10824;51.632;4.950;2023-03-13T06:54:44;4.57;;;1.15;;
21330;SDS011;10824;51.632;4.950;2023-03-13T06:57:11;6.55;;;1.30;;
21330;SDS011;10824;51.632;4.950;2023-03-13T06:59:38;1.92;;;1.13;;
21330;SDS011;10824;51.632;4.950;2023-03-13T07:02:05;3.38;;;1.20;;
21330;SDS011;10824;51.632;4.950;2023-03-13T07:04:34;2.85;;;1.63;;
21330;SDS011;10824;51.632;4.950;2023-03-13T07:07:01;5.32;;;1.63;;
21330;SDS011;10824;51.632;4.950;2023-03-13T07:09:28;2.65;;;1.33;;
21330;SDS011;10824;51.632;4.950;2023-03-13T07:11:55;5.13;;;1.23;;
21330;SDS011;10824;51.632;4.950;2023-03-13T07:14:24;3.03;;;1.40;;
21330;SDS011;10824;51.632;4.950;2023-03-13T07:16:51;3.78;;;1.40;;
21330;SDS011;10824;51.632;4.950;2023-03-13T07:19:18;3.15;;;1.25;;
21330;SDS011;10824;51.632;4.950;2023-03-13T07:21:45;4.97;;;1.35;;
21330;SDS011;10824;51.632;4.950;2023-03-13T07:24:12;2.58;;;1.00;;
21330;SDS011;10824;51.632;4.950;2023-03-13T07:26:39;5.85;;;1.20;;
21330;SDS011;10824;51.632;4.950;2023-03-13T07:29:23;2.75;;;1.25;;
21330;SDS011;10824;51.632;4.950;2023-03-13T07:31:50;1.85;;;1.00;;
21330;SDS011;10824;51.632;4.950;2023-03-13T07:34:17;4.18;;;1.45;;
21330;SDS011;10824;51.632;4.950;2023-03-13T07:36:44;4.88;;;2.25;;
21330;SDS011;10824;51.632;4.950;2023-03-13T07:39:12;4.93;;;1.20;;
21330;SDS011;10824;51.632;4.950;2023-03-13T07:41:39;9.93;;;1.38;;
21330;SDS011;10824;51.632;4.950;2023-03-13T07:44:05;3.60;;;1.23;;
21330;SDS011;10824;51.632;4.950;2023-03-13T07:46:33;2.97;;;1.30;;
21330;SDS011;10824;51.632;4.950;2023-03-13T07:49:01;3.33;;;1.27;;
21330;SDS011;10824;51.632;4.950;2023-03-13T07:51:28;3.88;;;1.40;;
21330;SDS011;10824;51.632;4.950;2023-03-13T07:54:08;2.60;;;1.35;;
21330;SDS011;10824;51.632;4.950;2023-03-13T07:56:35;2.75;;;1.33;;
21330;SDS011;10824;51.632;4.950;2023-03-13T07:59:02;8.25;;;1.67;;
21330;SDS011;10824;51.632;4.950;2023-03-13T08:01:29;6.22;;;1.65;;
21330;SDS011;10824;51.632;4.950;2023-03-13T08:03:56;3.60;;;1.33;;
21330;SDS011;10824;51.632;4.950;2023-03-13T08:06:28;2.38;;;1.35;;
21330;SDS011;10824;51.632;4.950;2023-03-13T08:08:59;2.38;;;1.13;;
21330;SDS011;10824;51.632;4.950;2023-03-13T08:11:27;1.67;;;1.40;;
21330;SDS011;10824;51.632;4.950;2023-03-13T08:13:54;3.50;;;1.20;;
21330;SDS011;10824;51.632;4.950;2023-03-13T08:18:52;3.40;;;1.30;;
21330;SDS011;10824;51.632;4.950;2023-03-13T08:21:22;2.65;;;1.25;;
21330;SDS011;10824;51.632;4.950;2023-03-13T08:23:51;9.38;;;1.40;;
21330;SDS011;10824;51.632;4.950;2023-03-13T08:26:21;4.55;;;1.40;;
21330;SDS011;10824;51.632;4.950;2023-03-13T08:28:56;2.97;;;0.90;;
21330;SDS011;10824;51.632;4.950;2023-03-13T08:31:26;3.67;;;1.00;;
21330;SDS011;10824;51.632;4.950;2023-03-13T08:34:04;2.10;;;0.98;;
21330;SDS011;10824;51.632;4.950;2023-03-13T08:36:32;5.53;;;1.10;;
21330;SDS011;10824;51.632;4.950;2023-03-13T08:39:03;1.75;;;1.00;;
21330;SDS011;10824;51.632;4.950;2023-03-13T08:41:38;3.92;;;1.42;;
21330;SDS011;10824;51.632;4.950;2023-03-13T08:44:07;1.17;;;0.70;;
21330;SDS011;10824;51.632;4.950;2023-03-13T08:46:37;3.55;;;1.20;;
21330;SDS011;10824;51.632;4.950;2023-03-13T08:49:05;2.47;;;0.90;;
21330;SDS011;10824;51.632;4.950;2023-03-13T08:51:33;1.38;;;0.70;;
21330;SDS011;10824;51.632;4.950;2023-03-13T08:54:01;3.33;;;0.98;;
21330;SDS011;10824;51.632;4.950;2023-03-13T08:56:29;1.50;;;0.80;;
21330;SDS011;10824;51.632;4.950;2023-03-13T08:58:57;5.40;;;1.08;;
21330;SDS011;10824;51.632;4.950;2023-03-13T09:01:27;12.20;;;1.05;;
21330;SDS011;10824;51.632;4.950;2023-03-13T09:03:55;3.03;;;1.20;;
21330;SDS011;10824;51.632;4.950;2023-03-13T09:06:23;4.32;;;1.83;;
21330;SDS011;10824;51.632;4.950;2023-03-13T09:08:50;3.22;;;1.25;;
21330;SDS011;10824;51.632;4.950;2023-03-13T09:11:18;4.82;;;0.90;;
21330;SDS011;10824;51.632;4.950;2023-03-13T09:13:47;4.05;;;1.27;;
21330;SDS011;10824;51.632;4.950;2023-03-13T09:16:19;3.55;;;0.85;;
21330;SDS011;10824;51.632;4.950;2023-03-13T09:18:48;2.35;;;0.70;;
21330;SDS011;10824;51.632;4.950;2023-03-13T09:21:17;3.97;;;0.80;;
21330;SDS011;10824;51.632;4.950;2023-03-13T09:23:55;11.75;;;2.97;;
21330;SDS011;10824;51.632;4.950;2023-03-13T09:26:23;4.00;;;1.40;;
21330;SDS011;10824;51.632;4.950;2023-03-13T09:28:51;3.78;;;0.95;;
21330;SDS011;10824;51.632;4.950;2023-03-13T09:31:20;3.38;;;0.90;;
21330;SDS011;10824;51.632;4.950;2023-03-13T09:33:55;3.92;;;1.88;;
21330;SDS011;10824;51.632;4.950;2023-03-13T09:36:24;4.43;;;1.08;;
21330;SDS011;10824;51.632;4.950;2023-03-13T09:38:53;2.90;;;1.20;;
21330;SDS011;10824;51.632;4.950;2023-03-13T09:44:21;3.45;;;1.23;;
21330;SDS011;10824;51.632;4.950;2023-03-13T09:47:09;4.13;;;1.00;;
21330;SDS011;10824;51.632;4.950;2023-03-13T09:49:44;2.33;;;0.90;;
21330;SDS011;10824;51.632;4.950;2023-03-13T09:52:23;3.40;;;1.00;;
21330;SDS011;10824;51.632;4.950;2023-03-13T09:54:58;2.35;;;0.80;;
21330;SDS011;10824;51.632;4.950;2023-03-13T09:57:37;2.53;;;0.80;;
21330;SDS011;10824;51.632;4.950;2023-03-13T10:00:13;2.58;;;0.88;;
21330;SDS011;10824;51.632;4.950;2023-03-13T10:05:46;2.67;;;1.98;;
21330;SDS011;10824;51.632;4.950;2023-03-13T10:08:19;2.58;;;0.95;;
21330;SDS011;10824;51.632;4.950;2023-03-13T10:10:56;2.08;;;0.70;;
21330;SDS011;10824;51.632;4.950;2023-03-13T10:16:09;2.97;;;1.67;;
21330;SDS011;10824;51.632;4.950;2023-03-13T10:18:47;1.85;;;0.90;;
21330;SDS011;10824;51.632;4.950;2023-03-13T10:21:22;1.15;;;0.70;;
21330;SDS011;10824;51.632;4.950;2023-03-13T10:26:29;2.95;;;0.70;;
21330;SDS011;10824;51.632;4.950;2023-03-13T10:31:51;1.38;;;0.77;;
21330;SDS011;10824;51.632;4.950;2023-03-13T10:34:54;2.88;;;1.02;;
21330;SDS011;10824;51.632;4.950;2023-03-13T10:37:29;1.10;;;1.00;;
21330;SDS011;10824;51.632;4.950;2023-03-13T10:40:11;4.72;;;0.93;;
21330;SDS011;10824;51.632;4.950;2023-03-13T10:42:44;3.85;;;0.80;;
21330;SDS011;10824;51.632;4.950;2023-03-13T10:45:21;1.27;;;0.50;;
21330;SDS011;10824;51.632;4.950;2023-03-13T10:47:54;1.38;;;0.70;;
21330;SDS011;10824;51.632;4.950;2023-03-13T10:50:23;0.93;;;0.50;;
21330;SDS011;10824;51.632;4.950;2023-03-13T10:52:55;2.42;;;1.00;;
21330;SDS011;10824;51.632;4.950;2023-03-13T10:55:24;1.75;;;0.75;;
21330;SDS011;10824;51.632;4.950;2023-03-13T10:58:03;4.57;;;0.70;;
21330;SDS011;10824;51.632;4.950;2023-03-13T11:03:17;3.05;;;0.65;;
21330;SDS011;10824;51.632;4.950;2023-03-13T11:08:24;1.75;;;0.93;;
21330;SDS011;10824;51.632;4.950;2023-03-13T11:11:00;2.15;;;1.70;;
21330;SDS011;10824;51.632;4.950;2023-03-13T11:13:32;2.17;;;0.80;;
21330;SDS011;10824;51.632;4.950;2023-03-13T11:16:21;3.40;;;0.70;;
21330;SDS011;10824;51.632;4.950;2023-03-13T11:19:07;2.75;;;0.50;;
21330;SDS011;10824;51.632;4.950;2023-03-13T11:24:13;1.92;;;0.50;;
21330;SDS011;10824;51.632;4.950;2023-03-13T11:26:58;1.75;;;0.65;;
21330;SDS011;10824;51.632;4.950;2023-03-13T11:36:00;1.40;;;0.57;;
21330;SDS011;10824;51.632;4.950;2023-03-13T11:38:07;3.70;;;0.75;;
21330;SDS011;10824;51.632;4.950;2023-03-13T11:49:09;3.50;;;1.00;;
21330;SDS011;10824;51.632;4.950;2023-03-13T11:51:51;1.88;;;0.60;;
21330;SDS011;10824;51.632;4.950;2023-03-13T11:57:33;1.42;;;0.55;;
21330;SDS011;10824;51.632;4.950;2023-03-13T12:00:19;3.95;;;0.77;;
21330;SDS011;10824;51.632;4.950;2023-03-13T12:02:55;4.63;;;0.60;;
21330;SDS011;10824;51.632;4.950;2023-03-13T12:05:49;1.83;;;0.93;;
21330;SDS011;10824;51.632;4.950;2023-03-13T12:13:34;1.17;;;0.55;;
21330;SDS011;10824;51.632;4.950;2023-03-13T12:16:14;2.20;;;0.60;;
21330;SDS011;10824;51.632;4.950;2023-03-13T12:21:22;2.97;;;0.60;;
21330;SDS011;10824;51.632;4.950;2023-03-13T12:24:09;2.38;;;0.57;;
21330;SDS011;10824;51.632;4.950;2023-03-13T12:27:00;5.43;;;0.80;;
21330;SDS011;10824;51.632;4.950;2023-03-13T12:37:46;1.23;;;0.50;;
21330;SDS011;10824;51.632;4.950;2023-03-13T12:45:36;4.70;;;0.65;;
21330;SDS011;10824;51.632;4.950;2023-03-13T12:59:04;2.55;;;0.70;;
21330;SDS011;10824;51.632;4.950;2023-03-13T13:01:52;2.15;;;0.70;;
21330;SDS011;10824;51.632;4.950;2023-03-13T13:04:22;1.13;;;0.70;;
21330;SDS011;10824;51.632;4.950;2023-03-13T13:06:59;3.10;;;0.73;;
21330;SDS011;10824;51.632;4.950;2023-03-13T13:09:30;4.32;;;1.10;;
21330;SDS011;10824;51.632;4.950;2023-03-13T13:12:02;4.03;;;1.08;;
21330;SDS011;10824;51.632;4.950;2023-03-13T13:19:56;6.03;;;1.20;;
21330;SDS011;10824;51.632;4.950;2023-03-13T13:32:49;4.57;;;1.10;;
21330;SDS011;10824;51.632;4.950;2023-03-13T13:37:46;4.13;;;1.55;;
21330;SDS011;10824;51.632;4.950;2023-03-13T13:42:49;3.60;;;1.25;;
21330;SDS011;10824;51.632;4.950;2023-03-13T13:45:19;2.88;;;1.13;;
21330;SDS011;10824;51.632;4.950;2023-03-13T13:59:21;3.85;;;0.95;;
21330;SDS011;10824;51.632;4.950;2023-03-13T14:01:49;2.97;;;1.10;;
21330;SDS011;10824;51.632;4.950;2023-03-13T14:04:42;5.78;;;2.47;;
21330;SDS011;10824;51.632;4.950;2023-03-13T14:07:26;4.03;;;1.10;;
21330;SDS011;10824;51.632;4.950;2023-03-13T14:09:58;5.22;;;1.55;;
21330;SDS011;10824;51.632;4.950;2023-03-13T14:12:31;2.33;;;1.20;;
21330;SDS011;10824;51.632;4.950;2023-03-13T14:15:06;4.32;;;1.10;;
21330;SDS011;10824;51.632;4.950;2023-03-13T14:17:42;6.55;;;1.58;;
21330;SDS011;10824;51.632;4.950;2023-03-13T14:20:18;2.90;;;1.27;;
21330;SDS011;10824;51.632;4.950;2023-03-13T14:22:56;9.48;;;1.30;;
21330;SDS011;10824;51.632;4.950;2023-03-13T14:25:39;6.05;;;1.35;;
21330;SDS011;10824;51.632;4.950;2023-03-13T14:28:22;4.20;;;1.33;;
21330;SDS011;10824;51.632;4.950;2023-03-13T14:30:52;4.47;;;1.42;;
21330;SDS011;10824;51.632;4.950;2023-03-13T14:33:22;6.47;;;1.50;;
21330;SDS011;10824;51.632;4.950;2023-03-13T14:35:52;5.53;;;1.27;;
21330;SDS011;10824;51.632;4.950;2023-03-13T14:38:23;4.00;;;1.58;;
21330;SDS011;10824;51.632;4.950;2023-03-13T14:40:53;10.57;;;1.45;;
21330;SDS011;10824;51.632;4.950;2023-03-13T14:46:13;3.50;;;1.33;;
21330;SDS011;10824;51.632;4.950;2023-03-13T14:48:54;5.72;;;1.23;;
21330;SDS011;10824;51.632;4.950;2023-03-13T14:51:25;7.45;;;1.88;;
21330;SDS011;10824;51.632;4.950;2023-03-13T14:53:54;9.57;;;2.78;;
21330;SDS011;10824;51.632;4.950;2023-03-13T14:56:29;4.85;;;1.23;;
21330;SDS011;10824;51.632;4.950;2023-03-13T14:59:44;3.15;;;1.10;;
21330;SDS011;10824;51.632;4.950;2023-03-13T15:02:02;4.93;;;1.58;;
21330;SDS011;10824;51.632;4.950;2023-03-13T15:04:50;10.80;;;1.65;;
21330;SDS011;10824;51.632;4.950;2023-03-13T15:07:34;5.38;;;1.40;;
21330;SDS011;10824;51.632;4.950;2023-03-13T15:10:24;5.03;;;1.50;;
21330;SDS011;10824;51.632;4.950;2023-03-13T15:12:51;10.88;;;1.30;;
21330;SDS011;10824;51.632;4.950;2023-03-13T15:15:18;9.57;;;1.50;;
21330;SDS011;10824;51.632;4.950;2023-03-13T15:17:45;3.97;;;1.40;;
21330;SDS011;10824;51.632;4.950;2023-03-13T15:20:13;3.50;;;1.20;;
21330;SDS011;10824;51.632;4.950;2023-03-13T15:22:42;5.25;;;1.23;;
21330;SDS011;10824;51.632;4.950;2023-03-13T15:25:16;9.98;;;1.60;;
21330;SDS011;10824;51.632;4.950;2023-03-13T15:27:48;5.50;;;1.58;;
21330;SDS011;10824;51.632;4.950;2023-03-13T15:30:17;4.65;;;1.60;;
21330;SDS011;10824;51.632;4.950;2023-03-13T15:32:46;6.15;;;1.48;;
21330;SDS011;10824;51.632;4.950;2023-03-13T15:35:30;3.63;;;1.20;;
21330;SDS011;10824;51.632;4.950;2023-03-13T15:37:59;3.60;;;2.00;;
21330;SDS011;10824;51.632;4.950;2023-03-13T15:40:30;4.57;;;1.40;;
21330;SDS011;10824;51.632;4.950;2023-03-13T15:42:57;7.13;;;1.40;;
21330;SDS011;10824;51.632;4.950;2023-03-13T15:45:24;6.03;;;1.52;;
21330;SDS011;10824;51.632;4.950;2023-03-13T15:47:52;7.38;;;1.63;;
21330;SDS011;10824;51.632;4.950;2023-03-13T15:50:19;5.38;;;1.35;;
21330;SDS011;10824;51.632;4.950;2023-03-13T15:52:49;10.57;;;1.65;;
21330;SDS011;10824;51.632;4.950;2023-03-13T15:55:16;7.45;;;2.45;;
21330;SDS011;10824;51.632;4.950;2023-03-13T15:57:44;10.13;;;2.58;;
21330;SDS011;10824;51.632;4.950;2023-03-13T16:00:21;4.97;;;1.40;;
21330;SDS011;10824;51.632;4.950;2023-03-13T16:02:50;8.50;;;1.90;;
21330;SDS011;10824;51.632;4.950;2023-03-13T16:05:18;9.05;;;2.33;;
21330;SDS011;10824;51.632;4.950;2023-03-13T16:07:45;11.82;;;1.73;;
21330;SDS011;10824;51.632;4.950;2023-03-13T16:10:16;5.10;;;2.10;;
21330;SDS011;10824;51.632;4.950;2023-03-13T16:12:50;13.25;;;2.13;;
21330;SDS011;10824;51.632;4.950;2023-03-13T16:15:25;5.47;;;1.55;;
21330;SDS011;10824;51.632;4.950;2023-03-13T16:17:52;8.90;;;1.83;;
21330;SDS011;10824;51.632;4.950;2023-03-13T16:20:20;10.00;;;1.92;;
21330;SDS011;10824;51.632;4.950;2023-03-13T16:22:49;9.68;;;2.35;;
21330;SDS011;10824;51.632;4.950;2023-03-13T16:25:19;6.28;;;1.73;;
21330;SDS011;10824;51.632;4.950;2023-03-13T16:27:46;6.80;;;2.00;;
21330;SDS011;10824;51.632;4.950;2023-03-13T16:30:32;6.38;;;1.95;;
21330;SDS011;10824;51.632;4.950;2023-03-13T16:33:00;3.25;;;1.58;;
21330;SDS011;10824;51.632;4.950;2023-03-13T16:35:27;10.88;;;3.40;;
21330;SDS011;10824;51.632;4.950;2023-03-13T16:37:55;10.57;;;2.90;;
21330;SDS011;10824;51.632;4.950;2023-03-13T16:40:27;7.13;;;2.10;;
21330;SDS011;10824;51.632;4.950;2023-03-13T16:42:56;6.97;;;1.80;;
21330;SDS011;10824;51.632;4.950;2023-03-13T16:45:24;6.88;;;2.83;;
21330;SDS011;10824;51.632;4.950;2023-03-13T16:47:52;10.18;;;2.10;;
21330;SDS011;10824;51.632;4.950;2023-03-13T16:50:33;14.45;;;1.95;;
21330;SDS011;10824;51.632;4.950;2023-03-13T16:55:31;8.25;;;1.60;;
21330;SDS011;10824;51.632;4.950;2023-03-13T16:58:02;5.32;;;2.08;;
21330;SDS011;10824;51.632;4.950;2023-03-13T17:00:30;6.97;;;1.58;;
21330;SDS011;10824;51.632;4.950;2023-03-13T17:02:58;9.77;;;1.70;;
21330;SDS011;10824;51.632;4.950;2023-03-13T17:05:26;7.78;;;2.08;;
21330;SDS011;10824;51.632;4.950;2023-03-13T17:07:53;11.05;;;1.80;;
21330;SDS011;10824;51.632;4.950;2023-03-13T17:10:25;8.80;;;1.85;;
21330;SDS011;10824;51.632;4.950;2023-03-13T17:12:54;14.02;;;2.25;;
21330;SDS011;10824;51.632;4.950;2023-03-13T17:15:21;10.75;;;2.20;;
21330;SDS011;10824;51.632;4.950;2023-03-13T17:17:49;7.65;;;1.90;;
21330;SDS011;10824;51.632;4.950;2023-03-13T17:20:18;8.68;;;2.35;;
21330;SDS011;10824;51.632;4.950;2023-03-13T17:22:48;7.32;;;1.75;;
21330;SDS011;10824;51.632;4.950;2023-03-13T17:25:15;5.35;;;1.58;;